Time;durP1;ratioP1;P1;durP2;ratioP2;P2;SDS_P1;SDS_P2;PMS_P1;PMS_P2;Temp;Humidity;BMP_temperature;BMP_pressure;BME280_temperature;BME280_humidity;BME280_pressure;Samples;Min_cycle;Max_cycle;Signal;HPM_P1;HPM_P2
2023/04/01 00:02:18;;;;;;;9.65;8.32;;;;;;;;;;5038076;28;20059;-80
2023/04/01 00:04:44;;;;;;;11.43;8.88;;;;;;;;;;5030016;28;20477;-80
2023/04/01 00:07:10;;;;;;;10.43;8.93;;;;;;;;;;5033410;28;20045;-80
2023/04/01 00:09:37;;;;;;;11.50;8.50;;;;;;;;;;5028986;28;20041;-79
2023/04/01 00:12:03;;;;;;;11.35;8.82;;;;;;;;;;5014666;28;20126;-80
2023/04/01 00:14:30;;;;;;;11.63;9.27;;;;;;;;;;5031460;28;20091;-80
2023/04/01 00:16:56;;;;;;;11.23;8.95;;;;;;;;;;5011944;28;20084;-79
2023/04/01 00:19:22;;;;;;;12.57;8.68;;;;;;;;;;5012119;28;20049;-80
2023/04/01 00:21:48;;;;;;;10.02;8.35;;;;;;;;;;5039634;28;20044;-80
2023/04/01 00:24:14;;;;;;;10.10;7.97;;;;;;;;;;5036115;28;20052;-80
2023/04/01 00:26:42;;;;;;;10.18;7.65;;;;;;;;;;5020639;28;20049;-80
2023/04/01 00:29:08;;;;;;;8.05;6.88;;;;;;;;;;5039489;28;20056;-81
2023/04/01 00:31:34;;;;;;;8.30;6.65;;;;;;;;;;5035782;28;20199;-80
2023/04/01 00:34:00;;;;;;;7.97;6.50;;;;;;;;;;5041236;28;20047;-80
2023/04/01 00:36:26;;;;;;;9.35;7.65;;;;;;;;;;5037878;28;20124;-80
2023/04/01 00:38:52;;;;;;;8.07;7.22;;;;;;;;;;5022205;28;20489;-80
2023/04/01 00:41:20;;;;;;;10.57;7.95;;;;;;;;;;5022944;28;20124;-80
2023/04/01 00:43:48;;;;;;;9.88;7.93;;;;;;;;;;5021747;28;20049;-80
2023/04/01 00:46:15;;;;;;;9.57;7.55;;;;;;;;;;5029725;28;20052;-80
2023/04/01 00:48:45;;;;;;;10.10;8.13;;;;;;;;;;5017046;28;20052;-80
2023/04/01 00:51:17;;;;;;;10.18;8.07;;;;;;;;;;5023263;28;20392;-80
2023/04/01 00:53:44;;;;;;;9.90;8.02;;;;;;;;;;5009813;28;20057;-80
2023/04/01 00:56:13;;;;;;;10.15;7.85;;;;;;;;;;5018648;28;20049;-80
2023/04/01 00:58:42;;;;;;;11.63;9.10;;;;;;;;;;5014485;28;20144;-80
2023/04/01 01:01:09;;;;;;;10.70;8.38;;;;;;;;;;5026291;28;20389;-80
2023/04/01 01:03:35;;;;;;;12.68;7.97;;;;;;;;;;5017701;28;20098;-80
2023/04/01 01:06:02;;;;;;;11.63;8.75;;;;;;;;;;5015316;28;20518;-80
2023/04/01 01:08:40;;;;;;;13.02;9.27;;;;;;;;;;5037505;28;20094;-80
2023/04/01 01:11:08;;;;;;;12.05;9.10;;;;;;;;;;5050046;28;20052;-80
2023/04/01 01:13:38;;;;;;;10.35;8.27;;;;;;;;;;5038517;28;20060;-80
2023/04/01 01:16:06;;;;;;;11.15;9.05;;;;;;;;;;5031527;28;20041;-80
2023/04/01 01:18:51;;;;;;;11.35;9.02;;;;;;;;;;5015973;28;20038;-81
2023/04/01 01:21:20;;;;;;;11.32;8.75;;;;;;;;;;5031074;28;20045;-81
2023/04/01 01:23:49;;;;;;;11.05;9.23;;;;;;;;;;5016647;28;20490;-80
2023/04/01 01:26:34;;;;;;;13.07;9.65;;;;;;;;;;5015347;28;20049;-80
2023/04/01 01:29:09;;;;;;;11.00;9.13;;;;;;;;;;5033946;28;20121;-80
2023/04/01 01:31:44;;;;;;;12.48;8.85;;;;;;;;;;5018613;28;20482;-80
2023/04/01 01:34:15;;;;;;;11.35;8.68;;;;;;;;;;5033337;28;20081;-80
2023/04/01 01:36:44;;;;;;;12.05;10.02;;;;;;;;;;5015958;28;20402;-80
2023/04/01 01:39:12;;;;;;;11.25;9.43;;;;;;;;;;5063636;28;20049;-80
2023/04/01 01:41:39;;;;;;;12.50;9.30;;;;;;;;;;5051803;28;20114;-80
2023/04/01 01:44:07;;;;;;;12.18;9.43;;;;;;;;;;5041001;28;20033;-80
2023/04/01 01:46:33;;;;;;;12.57;9.60;;;;;;;;;;5028628;28;20050;-80
2023/04/01 01:49:00;;;;;;;12.70;9.98;;;;;;;;;;5018298;28;20041;-80
2023/04/01 01:51:28;;;;;;;12.10;8.98;;;;;;;;;;5032493;28;20049;-80
2023/04/01 01:53:54;;;;;;;13.68;9.90;;;;;;;;;;5039558;28;20415;-81
2023/04/01 01:56:22;;;;;;;13.00;10.10;;;;;;;;;;5021727;28;20049;-81
2023/04/01 01:58:51;;;;;;;12.02;9.70;;;;;;;;;;5012025;28;20049;-80
2023/04/01 02:01:24;;;;;;;12.88;10.10;;;;;;;;;;5029867;28;20052;-80
2023/04/01 02:03:50;;;;;;;12.67;10.13;;;;;;;;;;5009955;28;20512;-80
2023/04/01 02:06:18;;;;;;;13.23;9.80;;;;;;;;;;5029021;28;20319;-80
2023/04/01 02:08:51;;;;;;;12.00;9.43;;;;;;;;;;5015290;28;20069;-80
2023/04/01 02:11:19;;;;;;;11.35;9.32;;;;;;;;;;5027661;28;20052;-81
2023/04/01 02:13:50;;;;;;;10.73;8.90;;;;;;;;;;5028071;28;20049;-81
2023/04/01 02:16:34;;;;;;;11.93;9.98;;;;;;;;;;5016491;28;20052;-80
2023/04/01 02:19:02;;;;;;;12.20;9.98;;;;;;;;;;5009529;28;20041;-80
2023/04/01 02:21:31;;;;;;;11.98;9.30;;;;;;;;;;5008857;28;20049;-80
2023/04/01 02:23:58;;;;;;;11.10;9.48;;;;;;;;;;5019411;28;20045;-80
2023/04/01 02:26:26;;;;;;;12.55;9.25;;;;;;;;;;5044692;28;20401;-80
2023/04/01 02:28:53;;;;;;;13.48;9.73;;;;;;;;;;5039136;28;20401;-80
2023/04/01 02:31:19;;;;;;;13.85;9.73;;;;;;;;;;5038535;28;20041;-80
2023/04/01 02:33:45;;;;;;;11.85;9.05;;;;;;;;;;5035439;28;20556;-80
2023/04/01 02:36:13;;;;;;;13.95;10.45;;;;;;;;;;5018677;28;20672;-80
2023/04/01 02:38:39;;;;;;;12.90;9.90;;;;;;;;;;5018321;28;20385;-80
2023/04/01 02:41:06;;;;;;;13.73;10.20;;;;;;;;;;5045919;28;20555;-80
2023/04/01 02:43:32;;;;;;;13.15;9.35;;;;;;;;;;5035986;28;20037;-80
2023/04/01 02:45:58;;;;;;;11.88;9.80;;;;;;;;;;5045616;28;20128;-80
2023/04/01 02:48:24;;;;;;;13.30;9.80;;;;;;;;;;5025351;28;20451;-80
2023/04/01 02:50:50;;;;;;;13.95;10.52;;;;;;;;;;5015065;28;20111;-80
2023/04/01 02:53:16;;;;;;;13.38;10.95;;;;;;;;;;5041178;28;20488;-81
2023/04/01 02:55:42;;;;;;;13.90;11.20;;;;;;;;;;5048450;28;20114;-81
2023/04/01 02:58:08;;;;;;;14.52;10.63;;;;;;;;;;5018277;28;20041;-80
2023/04/01 03:00:34;;;;;;;15.63;11.25;;;;;;;;;;5034376;28;20079;-80
2023/04/01 03:03:02;;;;;;;15.48;12.45;;;;;;;;;;5012182;28;21472;-80
2023/04/01 03:05:28;;;;;;;15.82;11.95;;;;;;;;;;5008975;28;20066;-81
2023/04/01 03:07:54;;;;;;;16.55;12.27;;;;;;;;;;5006613;28;20045;-81
2023/04/01 03:10:20;;;;;;;16.92;12.10;;;;;;;;;;5009820;28;20409;-81
2023/04/01 03:12:46;;;;;;;16.23;12.30;;;;;;;;;;5027423;28;20512;-80
2023/04/01 03:15:14;;;;;;;16.55;11.43;;;;;;;;;;5008962;28;20046;-81
2023/04/01 03:17:40;;;;;;;16.27;12.02;;;;;;;;;;5013166;28;20045;-81
2023/04/01 03:20:08;;;;;;;15.48;11.90;;;;;;;;;;5028179;28;20488;-80
2023/04/01 03:22:35;;;;;;;14.70;11.70;;;;;;;;;;5028188;28;20756;-80
2023/04/01 03:25:01;;;;;;;17.73;12.25;;;;;;;;;;5008185;28;20045;-80
2023/04/01 03:27:27;;;;;;;15.63;11.90;;;;;;;;;;5018249;28;20057;-81
2023/04/01 03:29:53;;;;;;;16.00;11.77;;;;;;;;;;5014968;28;20049;-81
2023/04/01 03:32:19;;;;;;;17.70;12.40;;;;;;;;;;5050090;28;20520;-80
2023/04/01 03:34:45;;;;;;;17.77;12.73;;;;;;;;;;5033961;28;20503;-80
2023/04/01 03:37:11;;;;;;;16.48;12.48;;;;;;;;;;5028275;28;20036;-80
2023/04/01 03:39:37;;;;;;;14.52;11.25;;;;;;;;;;5033173;28;20045;-80
2023/04/01 03:42:03;;;;;;;15.15;11.80;;;;;;;;;;5025876;28;20053;-80
2023/04/01 03:44:33;;;;;;;15.85;11.30;;;;;;;;;;5013681;28;20500;-80
2023/04/01 03:47:00;;;;;;;14.00;11.32;;;;;;;;;;5015708;28;20049;-80
2023/04/01 03:49:26;;;;;;;12.98;10.10;;;;;;;;;;5031074;28;20477;-80
2023/04/01 03:51:52;;;;;;;14.85;11.00;;;;;;;;;;5020026;28;20077;-81
2023/04/01 03:54:19;;;;;;;14.68;10.98;;;;;;;;;;5028030;28;20081;-80
2023/04/01 03:56:46;;;;;;;14.57;11.68;;;;;;;;;;5016994;28;20068;-80
2023/04/01 03:59:12;;;;;;;15.75;11.45;;;;;;;;;;5024718;28;20066;-80
2023/04/01 04:01:38;;;;;;;16.63;11.40;;;;;;;;;;5008381;28;20099;-80
2023/04/01 04:04:05;;;;;;;14.68;11.57;;;;;;;;;;5033844;28;20041;-80
2023/04/01 04:06:31;;;;;;;15.68;11.77;;;;;;;;;;5008885;28;20044;-80
2023/04/01 04:08:57;;;;;;;16.92;12.90;;;;;;;;;;5026735;28;20049;-81
2023/04/01 04:11:23;;;;;;;17.02;12.50;;;;;;;;;;5026565;28;20040;-80
2023/04/01 04:13:49;;;;;;;14.75;11.15;;;;;;;;;;5012504;28;20072;-81
2023/04/01 04:16:17;;;;;;;17.35;12.07;;;;;;;;;;5010900;28;20049;-81
2023/04/01 04:18:43;;;;;;;18.02;12.95;;;;;;;;;;5036312;28;20041;-80
2023/04/01 04:21:12;;;;;;;15.98;12.05;;;;;;;;;;5031550;28;20055;-81
2023/04/01 04:23:38;;;;;;;16.73;12.25;;;;;;;;;;5030358;28;20485;-80
2023/04/01 04:26:06;;;;;;;17.38;11.35;;;;;;;;;;5011437;28;20053;-80
2023/04/01 04:28:32;;;;;;;13.65;9.50;;;;;;;;;;5012170;28;20197;-81
2023/04/01 04:30:58;;;;;;;14.15;9.02;;;;;;;;;;5031364;28;20042;-81
2023/04/01 04:33:25;;;;;;;13.30;8.75;;;;;;;;;;5031049;28;20107;-81
2023/04/01 04:35:52;;;;;;;13.20;9.18;;;;;;;;;;5034074;28;20041;-80
2023/04/01 04:38:18;;;;;;;13.98;9.52;;;;;;;;;;5009648;28;20570;-80
2023/04/01 04:40:44;;;;;;;15.15;11.00;;;;;;;;;;5028480;28;20067;-81
2023/04/01 04:43:14;;;;;;;16.65;11.68;;;;;;;;;;5028401;28;20803;-80
2023/04/01 04:45:41;;;;;;;17.73;12.00;;;;;;;;;;5012054;28;20063;-80
2023/04/01 04:48:18;;;;;;;18.48;12.93;;;;;;;;;;5012036;28;20041;-81
2023/04/01 04:50:44;;;;;;;17.70;13.18;;;;;;;;;;5016133;28;20145;-80
2023/04/01 04:53:11;;;;;;;20.17;14.77;;;;;;;;;;5028636;28;20120;-82
2023/04/01 04:55:37;;;;;;;24.40;15.32;;;;;;;;;;5031079;28;20057;-81
2023/04/01 04:58:03;;;;;;;22.02;15.55;;;;;;;;;;5014444;28;20516;-81
2023/04/01 05:00:29;;;;;;;27.30;17.27;;;;;;;;;;5033018;28;20056;-80
2023/04/01 05:02:55;;;;;;;26.98;17.58;;;;;;;;;;5037843;28;20053;-81
2023/04/01 05:05:21;;;;;;;28.30;17.23;;;;;;;;;;5043169;28;20056;-79
2023/04/01 05:07:47;;;;;;;27.00;17.13;;;;;;;;;;5038943;28;20045;-81
2023/04/01 05:10:13;;;;;;;27.38;15.82;;;;;;;;;;5026108;28;20067;-81
2023/04/01 05:12:39;;;;;;;20.67;14.27;;;;;;;;;;5021823;28;20045;-81
2023/04/01 05:15:06;;;;;;;22.63;15.25;;;;;;;;;;5016147;28;20095;-81
2023/04/01 05:17:32;;;;;;;21.75;14.68;;;;;;;;;;5016633;28;20136;-81
2023/04/01 05:19:58;;;;;;;25.17;15.90;;;;;;;;;;5022230;28;20643;-81
2023/04/01 05:22:24;;;;;;;22.08;14.15;;;;;;;;;;5016023;28;20125;-80
2023/04/01 05:24:50;;;;;;;20.88;13.73;;;;;;;;;;5026799;28;20397;-80
2023/04/01 05:27:16;;;;;;;22.80;15.27;;;;;;;;;;5027125;28;20135;-80
2023/04/01 05:29:42;;;;;;;20.20;14.00;;;;;;;;;;5052158;28;20488;-80
2023/04/01 05:32:08;;;;;;;21.98;14.82;;;;;;;;;;5025261;28;20052;-81
2023/04/01 05:34:34;;;;;;;22.40;16.52;;;;;;;;;;5043400;28;20045;-80
2023/04/01 05:37:00;;;;;;;27.15;17.25;;;;;;;;;;5023377;28;20057;-81
2023/04/01 05:39:27;;;;;;;34.47;19.77;;;;;;;;;;5034340;28;20579;-80
2023/04/01 05:41:53;;;;;;;30.00;18.92;;;;;;;;;;5033436;28;20053;-80
2023/04/01 05:44:19;;;;;;;30.10;19.92;;;;;;;;;;5028719;28;20045;-80
2023/04/01 05:46:45;;;;;;;33.90;19.83;;;;;;;;;;5020960;28;20557;-80
2023/04/01 05:49:11;;;;;;;27.60;19.20;;;;;;;;;;5014031;28;20060;-80
2023/04/01 05:51:37;;;;;;;26.77;16.85;;;;;;;;;;5027298;28;20103;-80
2023/04/01 05:54:04;;;;;;;27.20;16.90;;;;;;;;;;5044877;28;20480;-80
2023/04/01 05:56:30;;;;;;;26.25;16.13;;;;;;;;;;5018440;28;20053;-80
2023/04/01 05:58:56;;;;;;;29.08;18.13;;;;;;;;;;5008779;28;20118;-80
2023/04/01 06:01:22;;;;;;;28.50;17.10;;;;;;;;;;5026568;28;20103;-81
2023/04/01 06:03:48;;;;;;;26.48;16.65;;;;;;;;;;5009134;28;20036;-81
2023/04/01 06:06:24;;;;;;;25.73;17.02;;;;;;;;;;5030351;28;20045;-81
2023/04/01 06:08:51;;;;;;;25.00;15.73;;;;;;;;;;5011290;28;20049;-81
2023/04/01 06:11:35;;;;;;;28.83;17.45;;;;;;;;;;5010912;28;20086;-81
2023/04/01 06:14:03;;;;;;;32.15;19.05;;;;;;;;;;5007954;28;20056;-80
2023/04/01 06:16:29;;;;;;;32.28;17.13;;;;;;;;;;5012686;28;20060;-80
2023/04/01 06:19:10;;;;;;;28.13;16.88;;;;;;;;;;5008585;28;20045;-80
2023/04/01 06:21:36;;;;;;;25.67;17.27;;;;;;;;;;5011784;28;20103;-80
2023/04/01 06:24:11;;;;;;;30.35;18.67;;;;;;;;;;5008655;28;20504;-80
2023/04/01 06:27:00;;;;;;;33.28;19.30;;;;;;;;;;5009709;28;20477;-81
2023/04/01 06:29:29;;;;;;;27.75;16.75;;;;;;;;;;5027957;28;20266;-81
2023/04/01 06:32:01;;;;;;;32.78;18.77;;;;;;;;;;5024994;28;20521;-81
2023/04/01 06:34:27;;;;;;;34.50;17.88;;;;;;;;;;5028049;28;20045;-81
2023/04/01 06:37:00;;;;;;;26.90;17.52;;;;;;;;;;5034721;28;20589;-81
2023/04/01 06:39:44;;;;;;;30.63;17.55;;;;;;;;;;5007266;28;20148;-81
2023/04/01 06:42:10;;;;;;;31.23;17.83;;;;;;;;;;5008729;28;20050;-81
2023/04/01 06:44:53;;;;;;;31.73;17.98;;;;;;;;;;5031255;28;20033;-80
2023/04/01 06:47:26;;;;;;;31.13;18.52;;;;;;;;;;5009178;28;20045;-80
2023/04/01 06:50:12;;;;;;;32.13;19.13;;;;;;;;;;5009496;28;20566;-81
2023/04/01 06:52:56;;;;;;;36.15;19.10;;;;;;;;;;5038770;28;20045;-80
2023/04/01 06:55:25;;;;;;;32.90;17.55;;;;;;;;;;5010423;28;20057;-81
2023/04/01 06:57:54;;;;;;;29.45;16.95;;;;;;;;;;5030930;28;20056;-80
2023/04/01 07:00:27;;;;;;;30.17;15.52;;;;;;;;;;5009621;28;20127;-81
2023/04/01 07:02:58;;;;;;;23.58;14.00;;;;;;;;;;5008172;28;20076;-80
2023/04/01 07:05:25;;;;;;;25.00;14.40;;;;;;;;;;5027534;28;20045;-80
2023/04/01 07:07:54;;;;;;;25.20;14.77;;;;;;;;;;5012940;28;20061;-81
2023/04/01 07:10:31;;;;;;;22.35;14.23;;;;;;;;;;5025413;28;20037;-80
2023/04/01 07:12:59;;;;;;;25.90;15.00;;;;;;;;;;5029463;28;20052;-80
2023/04/01 07:15:28;;;;;;;26.88;15.98;;;;;;;;;;5027877;28;20086;-80
2023/04/01 07:17:57;;;;;;;25.10;15.50;;;;;;;;;;5013651;28;20137;-81
2023/04/01 07:20:26;;;;;;;27.83;16.33;;;;;;;;;;5008993;28;20049;-80
2023/04/01 07:22:54;;;;;;;27.00;14.07;;;;;;;;;;5005073;28;20591;-80
2023/04/01 07:25:25;;;;;;;25.10;15.57;;;;;;;;;;5024107;28;20400;-80
2023/04/01 07:27:52;;;;;;;22.85;13.52;;;;;;;;;;5024664;28;20045;-80
2023/04/01 07:30:20;;;;;;;19.35;12.30;;;;;;;;;;5032792;28;20045;-80
2023/04/01 07:33:06;;;;;;;23.83;14.57;;;;;;;;;;5018459;28;20056;-80
2023/04/01 07:35:32;;;;;;;29.05;17.00;;;;;;;;;;5015744;28;20054;-80
2023/04/01 07:38:17;;;;;;;34.17;18.85;;;;;;;;;;5024889;28;20061;-80
2023/04/01 07:40:43;;;;;;;32.95;16.08;;;;;;;;;;5027443;28;20045;-80
2023/04/01 07:43:21;;;;;;;35.75;19.08;;;;;;;;;;5046366;28;20068;-81
2023/04/01 07:46:06;;;;;;;34.40;19.73;;;;;;;;;;5033278;28;20041;-81
2023/04/01 07:48:42;;;;;;;34.33;18.95;;;;;;;;;;5020521;28;20042;-79
2023/04/01 07:51:13;;;;;;;38.40;18.23;;;;;;;;;;5021660;28;20045;-81
2023/04/01 07:53:55;;;;;;;31.33;17.50;;;;;;;;;;5047341;28;20038;-80
2023/04/01 07:56:32;;;;;;;30.13;16.23;;;;;;;;;;5030392;28;20077;-80
2023/04/01 07:59:21;;;;;;;32.88;17.55;;;;;;;;;;5028202;28;20049;-80
2023/04/01 08:01:52;;;;;;;33.88;16.90;;;;;;;;;;4976921;28;20158;-80
2023/04/01 08:04:18;;;;;;;23.95;14.00;;;;;;;;;;5013232;28;20099;-80
2023/04/01 08:06:47;;;;;;;29.98;15.10;;;;;;;;;;5029423;28;20052;-80
2023/04/01 08:09:19;;;;;;;24.58;13.38;;;;;;;;;;5016279;28;20041;-80
2023/04/01 08:12:00;;;;;;;23.05;13.73;;;;;;;;;;5014832;28;20045;-80
2023/04/01 08:14:26;;;;;;;24.02;13.23;;;;;;;;;;5012958;28;20131;-82
2023/04/01 08:17:05;;;;;;;24.88;14.07;;;;;;;;;;5027531;28;20124;-81
2023/04/01 08:19:49;;;;;;;24.90;14.23;;;;;;;;;;5028776;28;20492;-81
2023/04/01 08:22:14;;;;;;;;;;;;;;;;;;5012043;28;20060;-80
2023/04/01 08:24:45;;;;;;;27.02;14.52;;;;;;;;;;5011260;28;19925;-80
2023/04/01 08:27:20;;;;;;;24.48;14.23;;;;;;;;;;5020437;28;20382;-80
2023/04/01 08:29:50;;;;;;;27.15;13.93;;;;;;;;;;5034842;28;20525;-79
2023/04/01 08:32:18;;;;;;;27.52;14.75;;;;;;;;;;5030487;28;20506;-79
2023/04/01 08:34:47;;;;;;;24.50;13.35;;;;;;;;;;5044386;28;20037;-79
2023/04/01 08:37:22;;;;;;;30.55;14.85;;;;;;;;;;5016993;28;20042;-79
2023/04/01 08:39:55;;;;;;;23.42;13.50;;;;;;;;;;5021858;28;20041;-80
2023/04/01 08:42:40;;;;;;;19.30;11.50;;;;;;;;;;5041575;28;20080;-80
2023/04/01 08:45:15;;;;;;;19.48;11.05;;;;;;;;;;5022497;28;20716;-79
2023/04/01 08:48:00;;;;;;;13.77;9.07;;;;;;;;;;5022098;28;20103;-80
2023/04/01 08:50:32;;;;;;;12.07;7.15;;;;;;;;;;5021009;28;20064;-80
2023/04/01 08:53:01;;;;;;;14.32;6.28;;;;;;;;;;5016071;28;20049;-80
2023/04/01 08:55:39;;;;;;;8.48;5.18;;;;;;;;;;5010780;28;20087;-80
2023/04/01 08:58:06;;;;;;;9.70;4.88;;;;;;;;;;5019173;28;20131;-78
2023/04/01 09:00:36;;;;;;;8.50;5.13;;;;;;;;;;5035154;28;20068;-79
2023/04/01 09:03:02;;;;;;;8.20;4.40;;;;;;;;;;5031644;28;20045;-80
2023/04/01 09:05:47;;;;;;;11.23;4.80;;;;;;;;;;5011587;28;20638;-80
2023/04/01 09:08:45;;;;;;;9.27;4.93;;;;;;;;;;5030628;28;20045;-81
2023/04/01 09:11:11;;;;;;;8.60;4.75;;;;;;;;;;4984232;28;20705;-81
2023/04/01 09:13:43;;;;;;;9.70;4.60;;;;;;;;;;5031399;28;20034;-79
2023/04/01 09:16:28;;;;;;;11.10;4.50;;;;;;;;;;5011466;28;20054;-80
2023/04/01 09:18:57;;;;;;;11.02;4.35;;;;;;;;;;5010553;28;20092;-80
2023/04/01 09:21:26;;;;;;;8.80;4.00;;;;;;;;;;5009463;28;20050;-80
2023/04/01 09:24:11;;;;;;;14.38;6.80;;;;;;;;;;5028190;28;20049;-80
2023/04/01 09:26:43;;;;;;;7.53;3.28;;;;;;;;;;5027955;28;20053;-80
2023/04/01 09:29:15;;;;;;;7.82;3.50;;;;;;;;;;5024589;28;20049;-80
2023/04/01 09:31:44;;;;;;;8.18;3.35;;;;;;;;;;5020634;28;20045;-80
2023/04/01 09:34:22;;;;;;;4.90;3.08;;;;;;;;;;5030989;28;20052;-80
2023/04/01 09:37:10;;;;;;;9.95;3.50;;;;;;;;;;5017584;28;20048;-80
2023/04/01 09:39:47;;;;;;;8.93;3.55;;;;;;;;;;5025100;28;20091;-79
2023/04/01 09:42:13;;;;;;;7.50;3.60;;;;;;;;;;5052311;28;20053;-80
2023/04/01 09:44:51;;;;;;;10.98;4.97;;;;;;;;;;5022366;28;20586;-80
2023/04/01 09:47:30;;;;;;;9.65;4.85;;;;;;;;;;5034058;28;20048;-79
2023/04/01 09:49:56;;;;;;;10.05;4.07;;;;;;;;;;5033120;28;20084;-80
2023/04/01 09:52:22;;;;;;;8.70;4.28;;;;;;;;;;5053767;28;20166;-80
2023/04/01 09:54:58;;;;;;;7.63;4.07;;;;;;;;;;5026157;28;20144;-79
2023/04/01 09:57:30;;;;;;;6.90;3.60;;;;;;;;;;5030329;28;20045;-80
2023/04/01 10:00:15;;;;;;;6.78;3.63;;;;;;;;;;5028367;28;20753;-80
2023/04/01 10:02:53;;;;;;;7.57;4.18;;;;;;;;;;5012337;28;20491;-80
2023/04/01 10:05:35;;;;;;;8.35;3.83;;;;;;;;;;5008069;28;20049;-80
2023/04/01 10:08:05;;;;;;;4.40;3.35;;;;;;;;;;5008903;28;20501;-80
2023/04/01 10:10:55;;;;;;;5.63;3.70;;;;;;;;;;5028550;28;20052;-80
2023/04/01 10:13:40;;;;;;;8.80;4.05;;;;;;;;;;5015990;28;20140;-79
2023/04/01 10:16:32;;;;;;;5.70;3.25;;;;;;;;;;5008250;28;20037;-80
2023/04/01 10:19:28;;;;;;;7.03;3.15;;;;;;;;;;5026444;28;20053;-80
2023/04/01 10:21:54;;;;;;;8.95;3.45;;;;;;;;;;5008640;28;20041;-81
2023/04/01 10:24:33;;;;;;;9.77;3.60;;;;;;;;;;5026456;28;20120;-80
2023/04/01 10:26:59;;;;;;;9.23;4.05;;;;;;;;;;5023251;28;20480;-80
2023/04/01 10:29:25;;;;;;;7.55;3.40;;;;;;;;;;5015581;28;20516;-80
2023/04/01 10:32:10;;;;;;;8.93;3.90;;;;;;;;;;5006420;28;20052;-80
2023/04/01 10:34:42;;;;;;;8.38;4.03;;;;;;;;;;5025773;28;20311;-80
2023/04/01 10:37:19;;;;;;;9.93;4.30;;;;;;;;;;5025657;28;20059;-80
2023/04/01 10:40:03;;;;;;;5.47;3.15;;;;;;;;;;5027462;28;20093;-80
2023/04/01 10:42:39;;;;;;;7.45;3.70;;;;;;;;;;5011838;28;20049;-80
2023/04/01 10:45:05;;;;;;;9.63;3.70;;;;;;;;;;5031762;28;20036;-80
2023/04/01 10:47:31;;;;;;;13.70;4.53;;;;;;;;;;5006318;28;20055;-80
2023/04/01 10:50:10;;;;;;;11.27;4.15;;;;;;;;;;5031345;28;20037;-80
2023/04/01 10:52:45;;;;;;;9.30;3.60;;;;;;;;;;5015862;28;20041;-80
2023/04/01 10:55:11;;;;;;;5.15;3.28;;;;;;;;;;5013952;28;20553;-80
2023/04/01 10:57:43;;;;;;;9.93;3.50;;;;;;;;;;5022060;28;20077;-79
2023/04/01 11:00:25;;;;;;;5.88;3.10;;;;;;;;;;5025760;28;20440;-80
2023/04/01 11:03:14;;;;;;;6.88;3.15;;;;;;;;;;5038244;28;20393;-81
2023/04/01 11:05:55;;;;;;;7.55;3.28;;;;;;;;;;5023108;28;20116;-80
2023/04/01 11:08:40;;;;;;;6.25;2.72;;;;;;;;;;5026865;28;20060;-81
2023/04/01 11:11:18;;;;;;;4.68;2.85;;;;;;;;;;5021311;28;20056;-80
2023/04/01 11:13:54;;;;;;;4.45;2.95;;;;;;;;;;5021205;28;20046;-80
2023/04/01 11:16:27;;;;;;;9.35;3.10;;;;;;;;;;5030869;28;20516;-80
2023/04/01 11:19:05;;;;;;;5.75;2.60;;;;;;;;;;5034530;28;20071;-80
2023/04/01 11:21:34;;;;;;;3.03;2.00;;;;;;;;;;5006122;28;20053;-80
2023/04/01 11:24:00;;;;;;;3.05;2.20;;;;;;;;;;5024453;28;20080;-80
2023/04/01 11:26:32;;;;;;;4.70;2.22;;;;;;;;;;5032407;28;20068;-80
2023/04/01 11:29:17;;;;;;;3.92;2.95;;;;;;;;;;5021257;28;20045;-80
2023/04/01 11:31:52;;;;;;;5.05;2.78;;;;;;;;;;5012626;28;20041;-80
2023/04/01 11:34:36;;;;;;;5.78;2.47;;;;;;;;;;5036526;28;20512;-80
2023/04/01 11:37:15;;;;;;;4.13;3.03;;;;;;;;;;5027378;28;20077;-80
2023/04/01 11:40:00;;;;;;;6.05;2.80;;;;;;;;;;5025092;28;20053;-80
2023/04/01 11:42:49;;;;;;;5.78;2.92;;;;;;;;;;5021121;28;20106;-80
2023/04/01 11:45:25;;;;;;;4.53;2.42;;;;;;;;;;5033109;28;20053;-80
2023/04/01 11:47:54;;;;;;;8.75;2.85;;;;;;;;;;5040724;28;20053;-79
2023/04/01 11:50:38;;;;;;;7.75;3.08;;;;;;;;;;5031785;28;20042;-80
2023/04/01 11:53:10;;;;;;;7.50;3.20;;;;;;;;;;5027726;28;20429;-79
2023/04/01 11:55:56;;;;;;;3.58;2.67;;;;;;;;;;5029600;28;20053;-79
2023/04/01 11:58:22;;;;;;;3.20;2.67;;;;;;;;;;5030158;28;20102;-80
2023/04/01 12:00:54;;;;;;;4.35;2.75;;;;;;;;;;5031733;28;20061;-80
2023/04/01 12:03:33;;;;;;;4.70;2.97;;;;;;;;;;5019639;28;20060;-79
2023/04/01 12:06:02;;;;;;;4.70;2.67;;;;;;;;;;5031236;28;20049;-80
2023/04/01 12:08:29;;;;;;;4.93;2.42;;;;;;;;;;5020109;28;20053;-80
2023/04/01 12:11:07;;;;;;;5.30;2.47;;;;;;;;;;5038923;28;20033;-80
2023/04/01 12:13:36;;;;;;;5.82;2.92;;;;;;;;;;5037303;28;20045;-81
2023/04/01 12:16:02;;;;;;;8.70;2.92;;;;;;;;;;5036460;28;20111;-80
2023/04/01 12:18:35;;;;;;;4.32;3.00;;;;;;;;;;5039063;28;20490;-79
2023/04/01 12:21:20;;;;;;;4.43;2.58;;;;;;;;;;5032079;28;20046;-79
2023/04/01 12:23:56;;;;;;;5.68;2.70;;;;;;;;;;5037822;28;20053;-80
2023/04/01 12:26:27;;;;;;;9.48;3.00;;;;;;;;;;5033213;28;20048;-80
2023/04/01 12:29:04;;;;;;;4.38;2.67;;;;;;;;;;5020867;28;20071;-80
2023/04/01 12:31:53;;;;;;;7.70;3.78;;;;;;;;;;5041172;28;20133;-80
2023/04/01 12:34:22;;;;;;;5.28;2.45;;;;;;;;;;5045276;28;20053;-79
2023/04/01 12:37:03;;;;;;;4.85;2.60;;;;;;;;;;5049933;28;20056;-79
2023/04/01 12:40:01;;;;;;;5.00;2.97;;;;;;;;;;5020349;28;20140;-79
2023/04/01 12:42:49;;;;;;;4.22;2.33;;;;;;;;;;5001958;28;20053;-79
2023/04/01 12:45:32;;;;;;;5.32;3.20;;;;;;;;;;5022222;28;20059;-79
2023/04/01 12:48:10;;;;;;;9.30;3.43;;;;;;;;;;5032317;28;20053;-80
2023/04/01 12:50:37;;;;;;;3.72;2.60;;;;;;;;;;5028266;28;20049;-79
2023/04/01 12:53:22;;;;;;;5.80;2.70;;;;;;;;;;5027790;28;20091;-79
2023/04/01 12:55:52;;;;;;;3.83;2.47;;;;;;;;;;5026452;28;20504;-80
2023/04/01 12:58:37;;;;;;;3.65;2.60;;;;;;;;;;5015899;28;20060;-82
2023/04/01 13:01:22;;;;;;;4.43;2.60;;;;;;;;;;5015735;28;20049;-81
2023/04/01 13:03:51;;;;;;;5.18;3.00;;;;;;;;;;5030438;28;20052;-81
2023/04/01 13:06:17;;;;;;;3.90;2.60;;;;;;;;;;5051087;28;20052;-81
2023/04/01 13:08:43;;;;;;;4.53;2.97;;;;;;;;;;5015805;28;20057;-82
2023/04/01 13:11:31;;;;;;;8.43;3.10;;;;;;;;;;5039725;28;20049;-81
2023/04/01 13:14:00;;;;;;;4.38;2.60;;;;;;;;;;5042024;28;20036;-82
2023/04/01 13:16:38;;;;;;;4.68;2.50;;;;;;;;;;5028633;28;20041;-80
2023/04/01 13:19:20;;;;;;;4.90;2.83;;;;;;;;;;5023393;28;20037;-83
2023/04/01 13:21:58;;;;;;;4.20;3.03;;;;;;;;;;5033178;28;20508;-82
2023/04/01 13:24:54;;;;;;;3.58;2.72;;;;;;;;;;5047742;28;20094;-81
2023/04/01 13:27:20;;;;;;;3.80;2.78;;;;;;;;;;5030551;28;20057;-82
2023/04/01 13:30:02;;;;;;;4.25;2.90;;;;;;;;;;5048662;28;20424;-81
2023/04/01 13:32:28;;;;;;;3.13;2.60;;;;;;;;;;5038103;28;20049;-81
2023/04/01 13:35:05;;;;;;;6.93;2.88;;;;;;;;;;5040806;28;20052;-79
2023/04/01 13:37:50;;;;;;;5.47;3.00;;;;;;;;;;5016134;28;20038;-80
2023/04/01 13:40:26;;;;;;;4.63;2.67;;;;;;;;;;5049169;28;20120;-81
2023/04/01 13:43:05;;;;;;;5.75;3.15;;;;;;;;;;5020603;28;20040;-81
2023/04/01 13:45:31;;;;;;;5.32;3.13;;;;;;;;;;5034318;28;20119;-79
2023/04/01 13:47:59;;;;;;;5.18;2.90;;;;;;;;;;5039455;28;20109;-80
2023/04/01 13:50:44;;;;;;;8.35;2.97;;;;;;;;;;5048591;28;20090;-78
2023/04/01 13:53:11;;;;;;;6.75;3.10;;;;;;;;;;5016595;28;20041;-79
2023/04/01 13:55:55;;;;;;;5.00;3.00;;;;;;;;;;5019373;28;20494;-79
2023/04/01 13:58:30;;;;;;;4.88;3.17;;;;;;;;;;5035334;28;20095;-78
2023/04/01 14:01:08;;;;;;;4.72;3.20;;;;;;;;;;5040110;28;20056;-78
2023/04/01 14:03:37;;;;;;;3.30;3.00;;;;;;;;;;5020704;28;20474;-79
2023/04/01 14:06:09;;;;;;;4.93;3.35;;;;;;;;;;5018044;28;20045;-80
2023/04/01 14:08:54;;;;;;;5.15;2.72;;;;;;;;;;5021829;28;20041;-79
2023/04/01 14:11:31;;;;;;;8.32;3.17;;;;;;;;;;5035782;28;20049;-79
2023/04/01 14:14:09;;;;;;;7.95;3.08;;;;;;;;;;5032487;28;20049;-79
2023/04/01 14:16:53;;;;;;;8.35;2.75;;;;;;;;;;5014405;28;20044;-79
2023/04/01 14:19:29;;;;;;;7.45;2.80;;;;;;;;;;5016738;28;20088;-79
2023/04/01 14:22:15;;;;;;;7.57;2.95;;;;;;;;;;5016041;28;20045;-79
2023/04/01 14:24:45;;;;;;;3.33;2.92;;;;;;;;;;5017753;28;20041;-79
2023/04/01 14:27:14;;;;;;;5.30;3.10;;;;;;;;;;5051577;28;20431;-80
2023/04/01 14:29:52;;;;;;;7.20;3.65;;;;;;;;;;5032301;28;20044;-80
2023/04/01 14:32:31;;;;;;;9.35;2.78;;;;;;;;;;5015076;28;20049;-80
2023/04/01 14:35:03;;;;;;;6.85;2.75;;;;;;;;;;5032046;28;20134;-80
2023/04/01 14:37:48;;;;;;;10.88;3.28;;;;;;;;;;5015417;28;20076;-79
2023/04/01 14:40:32;;;;;;;11.23;3.65;;;;;;;;;;5033104;28;20502;-79
2023/04/01 14:43:13;;;;;;;11.02;3.30;;;;;;;;;;5049172;28;20439;-79
2023/04/01 14:45:42;;;;;;;10.30;3.63;;;;;;;;;;5032025;28;20041;-78
2023/04/01 14:48:27;;;;;;;10.88;3.53;;;;;;;;;;5032727;28;20056;-79
2023/04/01 14:51:02;;;;;;;14.57;4.82;;;;;;;;;;5041751;28;20376;-80
2023/04/01 14:53:31;;;;;;;11.57;3.80;;;;;;;;;;5019603;28;20056;-79
2023/04/01 14:55:58;;;;;;;8.27;4.28;;;;;;;;;;5037580;28;20062;-79
2023/04/01 14:58:26;;;;;;;14.93;4.68;;;;;;;;;;5046126;28;20519;-79
2023/04/01 15:00:59;;;;;;;11.30;4.53;;;;;;;;;;5028374;28;20055;-79